createdAt,value
2022-12-28T00:00:01.342Z,11.40
2022-12-28T00:02:30.369Z,11.30
2022-12-28T00:05:00.775Z,11.90
2022-12-28T00:07:28.621Z,11.40
2022-12-28T00:09:56.568Z,9.30
2022-12-28T00:12:25.193Z,12.80
2022-12-28T00:14:53.611Z,12.80
2022-12-28T00:17:21.383Z,10.90
2022-12-28T00:19:49.251Z,11.80
2022-12-28T00:22:17.063Z,10.40
2022-12-28T00:24:45.000Z,12.20
2022-12-28T00:27:13.056Z,10.30
2022-12-28T00:29:41.155Z,11.60
2022-12-28T00:32:09.595Z,12.80
2022-12-28T00:34:37.397Z,11.20
2022-12-28T00:37:08.701Z,10.80
2022-12-28T00:39:42.368Z,11.00
2022-12-28T00:42:10.611Z,11.40
2022-12-28T00:44:39.063Z,10.30
2022-12-28T00:47:07.147Z,11.20
2022-12-28T00:49:34.959Z,8.80
2022-12-28T00:52:03.646Z,9.90
2022-12-28T00:54:32.024Z,11.30
2022-12-28T00:56:59.877Z,9.80
2022-12-28T00:59:28.309Z,11.90
2022-12-28T01:01:56.587Z,10.10
2022-12-28T01:04:24.587Z,13.30
2022-12-28T01:06:52.410Z,9.20
2022-12-28T01:09:21.332Z,12.50
2022-12-28T01:11:49.412Z,11.90
2022-12-28T01:14:17.311Z,9.80
2022-12-28T01:16:45.454Z,10.20
2022-12-28T01:19:16.557Z,11.20
2022-12-28T01:21:44.283Z,9.10
2022-12-28T01:24:12.287Z,9.60
2022-12-28T01:26:40.252Z,9.90
2022-12-28T01:29:08.142Z,13.70
2022-12-28T01:31:36.331Z,13.00
2022-12-28T01:34:07.231Z,9.60
2022-12-28T01:36:35.547Z,9.90
2022-12-28T01:39:05.334Z,10.40
2022-12-28T01:41:36.873Z,12.60
2022-12-28T01:44:04.775Z,15.00
2022-12-28T01:46:59.181Z,10.90
2022-12-28T01:49:29.812Z,13.40
2022-12-28T01:52:04.281Z,11.20
2022-12-28T01:54:49.473Z,12.20
2022-12-28T01:57:19.279Z,11.00
2022-12-28T01:59:51.117Z,13.10
2022-12-28T02:02:20.474Z,12.30
2022-12-28T02:04:49.024Z,13.00
2022-12-28T02:07:20.043Z,12.50
2022-12-28T02:10:40.637Z,12.00
2022-12-28T02:12:36.136Z,10.60
2022-12-28T02:15:04.650Z,11.30
2022-12-28T02:17:33.318Z,12.40
2022-12-28T02:20:01.679Z,12.10
2022-12-28T02:22:48.504Z,12.40
2022-12-28T02:25:29.121Z,13.10
2022-12-28T02:28:19.358Z,11.30
2022-12-28T02:30:54.561Z,9.60
2022-12-28T02:33:32.466Z,10.20
2022-12-28T02:36:18.271Z,10.50
2022-12-28T02:38:49.219Z,10.80
2022-12-28T02:41:18.723Z,9.50
2022-12-28T02:43:46.668Z,9.60
2022-12-28T02:46:38.107Z,10.00
2022-12-28T02:49:44.074Z,13.70
2022-12-28T02:52:21.327Z,10.00
2022-12-28T02:55:16.460Z,11.30
2022-12-28T02:58:06.675Z,10.00
2022-12-28T03:00:45.075Z,11.20
2022-12-28T03:03:12.872Z,9.40
2022-12-28T03:06:17.529Z,10.10
2022-12-28T03:08:47.229Z,10.90
2022-12-28T03:11:19.835Z,11.00
2022-12-28T03:14:01.946Z,10.50
2022-12-28T03:16:57.999Z,10.10
2022-12-28T03:19:49.765Z,8.60
2022-12-28T03:22:38.249Z,9.80
2022-12-28T03:25:27.718Z,11.20
2022-12-28T03:28:15.034Z,9.60
2022-12-28T03:31:03.524Z,8.70
2022-12-28T03:33:31.962Z,10.80
2022-12-28T03:36:05.873Z,9.60
2022-12-28T03:38:56.889Z,9.90
2022-12-28T03:42:19.646Z,8.90
2022-12-28T03:44:54.355Z,11.00
2022-12-28T03:47:24.120Z,11.80
2022-12-28T03:49:52.344Z,10.10
2022-12-28T03:52:20.657Z,12.00
2022-12-28T03:54:48.566Z,10.40
2022-12-28T03:57:17.126Z,11.10
2022-12-28T03:59:45.223Z,9.80
2022-12-28T04:02:13.499Z,10.80
2022-12-28T04:04:41.683Z,11.10
2022-12-28T04:07:09.757Z,8.90
2022-12-28T04:09:37.630Z,12.40
2022-12-28T04:12:05.814Z,11.20
2022-12-28T04:14:33.760Z,11.10
2022-12-28T04:17:01.580Z,11.20
2022-12-28T04:19:29.907Z,12.20
2022-12-28T04:21:57.829Z,10.00
2022-12-28T04:24:25.848Z,12.40
2022-12-28T04:26:53.841Z,10.30
2022-12-28T04:29:21.985Z,12.00
2022-12-28T04:31:50.277Z,10.90
2022-12-28T04:34:18.417Z,10.40
2022-12-28T04:36:47.304Z,10.10
2022-12-28T04:39:15.185Z,10.20
2022-12-28T04:41:43.149Z,11.80
2022-12-28T04:44:11.065Z,9.60
2022-12-28T04:46:39.018Z,12.70
2022-12-28T04:49:07.070Z,9.90
2022-12-28T04:51:35.423Z,9.70
2022-12-28T04:54:03.401Z,8.90
2022-12-28T04:56:32.193Z,10.30
2022-12-28T04:59:00.807Z,11.20
2022-12-28T05:01:28.851Z,12.00
2022-12-28T05:03:59.557Z,10.50
2022-12-28T05:06:29.470Z,8.20
2022-12-28T05:08:57.901Z,10.60
2022-12-28T05:11:27.871Z,9.70
2022-12-28T05:13:56.162Z,11.00
2022-12-28T05:16:25.592Z,8.50
2022-12-28T05:18:54.863Z,9.80
2022-12-28T05:21:24.499Z,10.30
2022-12-28T05:23:52.434Z,10.80
2022-12-28T05:26:21.758Z,10.30
2022-12-28T05:28:50.015Z,10.00
2022-12-28T05:31:19.339Z,13.20
2022-12-28T05:33:47.899Z,9.90
2022-12-28T05:36:20.076Z,8.30
2022-12-28T05:38:48.188Z,14.30
2022-12-28T05:41:17.971Z,8.60
2022-12-28T05:43:46.529Z,8.60
2022-12-28T05:46:24.985Z,9.40
2022-12-28T05:48:55.271Z,9.20
2022-12-28T05:51:24.475Z,8.20
2022-12-28T05:53:52.573Z,11.30
2022-12-28T05:56:24.279Z,9.80
2022-12-28T05:59:13.775Z,9.40
2022-12-28T06:01:43.444Z,10.20
2022-12-28T06:04:19.398Z,9.50
2022-12-28T06:06:48.613Z,10.50
2022-12-28T06:09:16.625Z,12.90
2022-12-28T06:11:44.414Z,10.70
2022-12-28T06:14:12.730Z,10.70
2022-12-28T06:16:42.137Z,13.60
2022-12-28T06:19:11.602Z,10.90
2022-12-28T06:21:40.484Z,12.50
2022-12-28T06:24:09.172Z,14.00
2022-12-28T06:26:37.896Z,11.50
2022-12-28T06:29:06.192Z,12.10
2022-12-28T06:31:35.266Z,12.10
2022-12-28T06:34:04.663Z,12.60
2022-12-28T06:36:35.465Z,13.20
2022-12-28T06:39:04.410Z,13.50
2022-12-28T06:41:32.927Z,13.20
2022-12-28T06:44:00.856Z,11.50
2022-12-28T06:46:29.792Z,14.00
2022-12-28T06:48:58.703Z,14.20
2022-12-28T06:51:27.724Z,12.60
2022-12-28T06:53:55.715Z,13.30
2022-12-28T06:56:27.852Z,12.60
2022-12-28T06:59:02.055Z,17.30
2022-12-28T07:01:32.970Z,20.00
2022-12-28T07:04:02.261Z,15.40
2022-12-28T07:06:30.687Z,12.30
2022-12-28T07:09:00.214Z,12.80
2022-12-28T07:11:29.274Z,14.40
2022-12-28T07:13:57.463Z,12.60
2022-12-28T07:16:26.401Z,10.70
2022-12-28T07:18:54.710Z,11.30
2022-12-28T07:21:24.254Z,12.30
2022-12-28T07:23:52.910Z,11.10
2022-12-28T07:26:22.161Z,11.10
2022-12-28T07:28:51.714Z,11.60
2022-12-28T07:31:21.579Z,13.20
2022-12-28T07:33:50.469Z,13.00
2022-12-28T07:36:19.402Z,8.60
2022-12-28T07:38:47.755Z,13.20
2022-12-28T07:41:38.903Z,13.20
2022-12-28T07:44:07.411Z,11.40
2022-12-28T07:46:36.155Z,10.10
2022-12-28T07:49:05.055Z,10.50
2022-12-28T07:51:35.252Z,12.20
2022-12-28T07:54:03.699Z,10.50
2022-12-28T07:59:00.940Z,11.50
2022-12-28T08:01:30.957Z,10.50
2022-12-28T08:04:00.078Z,10.60
2022-12-28T08:06:28.987Z,10.60
2022-12-28T08:08:59.550Z,9.40
2022-12-28T08:11:32.023Z,9.10
2022-12-28T08:14:00.293Z,11.70
2022-12-28T08:16:29.570Z,9.90
2022-12-28T08:18:57.662Z,10.30
2022-12-28T08:21:30.646Z,9.80
2022-12-28T08:23:59.453Z,10.70
2022-12-28T08:26:29.348Z,10.40
2022-12-28T08:28:58.333Z,10.10
2022-12-28T08:31:30.436Z,9.50
2022-12-28T08:33:59.585Z,8.30
2022-12-28T08:36:27.881Z,8.80
2022-12-28T08:38:57.702Z,9.40
2022-12-28T08:41:26.264Z,9.30
2022-12-28T08:43:55.094Z,8.40
2022-12-28T08:46:31.077Z,11.20
2022-12-28T08:48:59.929Z,10.90
2022-12-28T08:51:27.981Z,12.00
2022-12-28T08:53:56.016Z,11.30
2022-12-28T08:56:26.113Z,12.30
2022-12-28T08:58:55.051Z,11.10
2022-12-28T09:01:27.369Z,10.10
2022-12-28T09:03:58.049Z,8.80
2022-12-28T09:06:39.122Z,9.30
2022-12-28T09:09:08.087Z,8.30
2022-12-28T09:11:36.584Z,8.60
2022-12-28T09:14:06.119Z,9.70
2022-12-28T09:16:34.390Z,8.70
2022-12-28T09:19:04.158Z,9.20
2022-12-28T09:21:33.698Z,9.70
2022-12-28T09:24:01.968Z,10.40
2022-12-28T09:26:36.494Z,8.80
2022-12-28T09:29:05.902Z,11.20
2022-12-28T09:31:38.241Z,8.60
2022-12-28T09:37:00.927Z,8.00
2022-12-28T09:39:29.365Z,9.70
2022-12-28T09:41:59.996Z,8.40
2022-12-28T09:44:31.230Z,7.90
2022-12-28T09:47:02.170Z,7.90
2022-12-28T09:49:49.245Z,8.10
2022-12-28T09:52:25.345Z,8.80
2022-12-28T09:54:54.283Z,9.00
2022-12-28T09:57:23.193Z,5.70
2022-12-28T09:59:52.283Z,10.20
2022-12-28T10:02:26.727Z,6.00
2022-12-28T10:04:55.240Z,6.00
2022-12-28T10:07:23.312Z,7.90
2022-12-28T10:09:52.142Z,7.40
2022-12-28T10:12:23.097Z,6.90
2022-12-28T10:14:54.350Z,6.50
2022-12-28T10:17:28.631Z,9.00
2022-12-28T10:19:59.779Z,6.80
2022-12-28T10:22:40.633Z,8.60
2022-12-28T10:25:17.219Z,5.50
2022-12-28T10:27:46.380Z,6.40
2022-12-28T10:30:19.337Z,7.50
2022-12-28T10:32:56.746Z,8.20
2022-12-28T10:35:38.382Z,7.00
2022-12-28T10:38:08.506Z,7.40
2022-12-28T10:40:38.713Z,6.40
2022-12-28T10:43:11.046Z,7.40
2022-12-28T10:45:41.609Z,7.00
2022-12-28T10:48:18.471Z,5.30
2022-12-28T10:50:50.474Z,6.00
2022-12-28T10:53:29.275Z,5.60
2022-12-28T10:56:03.247Z,6.50
2022-12-28T10:58:34.328Z,5.80
2022-12-28T11:01:06.873Z,4.80
2022-12-28T11:03:38.692Z,6.30
2022-12-28T11:06:10.212Z,5.90
2022-12-28T11:08:38.477Z,6.70
2022-12-28T11:11:07.084Z,5.30
2022-12-28T11:13:34.996Z,7.10
2022-12-28T11:16:08.107Z,6.10
2022-12-28T11:18:38.304Z,7.60
2022-12-28T11:21:09.992Z,5.20
2022-12-28T11:23:38.486Z,4.70
2022-12-28T11:26:12.243Z,6.10
2022-12-28T11:28:43.061Z,6.40
2022-12-28T11:31:21.350Z,6.40
2022-12-28T11:33:51.752Z,5.50
2022-12-28T11:36:21.671Z,8.40
2022-12-28T11:38:51.173Z,6.90
2022-12-28T11:41:31.773Z,6.80
2022-12-28T11:44:03.081Z,6.90
2022-12-28T11:46:33.107Z,7.90
2022-12-28T11:49:02.286Z,7.30
2022-12-28T11:51:30.587Z,6.30
2022-12-28T11:54:04.267Z,7.30
2022-12-28T11:56:44.441Z,7.00
2022-12-28T11:59:22.228Z,8.20
2022-12-28T12:01:54.810Z,5.60
2022-12-28T12:04:35.559Z,5.50
2022-12-28T12:07:03.760Z,5.70
2022-12-28T12:09:38.641Z,5.20
2022-12-28T12:12:17.960Z,5.10
2022-12-28T12:15:07.371Z,5.80
2022-12-28T12:17:46.922Z,5.20
2022-12-28T12:20:21.026Z,5.60
2022-12-28T12:22:52.267Z,5.70
2022-12-28T12:25:24.969Z,6.00
2022-12-28T12:28:01.822Z,5.20
2022-12-28T12:30:35.299Z,8.60
2022-12-28T12:33:07.293Z,5.20
2022-12-28T12:35:50.048Z,6.90
2022-12-28T12:38:26.992Z,4.60
2022-12-28T12:41:14.349Z,6.70
2022-12-28T12:44:03.882Z,6.00
2022-12-28T12:46:38.088Z,6.50
2022-12-28T12:49:06.497Z,5.90
2022-12-28T12:51:43.225Z,5.90
2022-12-28T12:54:32.826Z,5.40
2022-12-28T12:57:06.244Z,6.20
2022-12-28T12:59:39.300Z,5.20
2022-12-28T13:02:27.469Z,8.90
2022-12-28T13:04:57.316Z,6.80
2022-12-28T13:07:29.328Z,6.10
2022-12-28T13:09:59.860Z,5.10
2022-12-28T13:12:29.286Z,6.50
2022-12-28T13:15:00.013Z,5.90
2022-12-28T13:17:28.774Z,7.00
2022-12-28T13:20:09.329Z,6.20
2022-12-28T13:22:39.247Z,5.40
2022-12-28T13:25:22.687Z,8.90
2022-12-28T13:27:51.157Z,6.20
2022-12-28T13:30:20.468Z,6.60
2022-12-28T13:32:56.426Z,7.50
2022-12-28T13:35:29.140Z,6.30
2022-12-28T13:38:00.259Z,7.30
2022-12-28T13:40:29.224Z,8.00
2022-12-28T13:42:57.904Z,6.80
2022-12-28T13:45:26.403Z,7.20
2022-12-28T13:47:55.596Z,8.20
2022-12-28T13:50:27.546Z,8.50
2022-12-28T13:52:59.205Z,5.10
2022-12-28T13:55:31.539Z,11.00
2022-12-28T13:58:05.254Z,7.50
2022-12-28T14:00:34.171Z,7.70
2022-12-28T14:03:02.746Z,5.30
2022-12-28T14:05:31.860Z,6.40
2022-12-28T14:08:00.191Z,7.40
2022-12-28T14:10:32.609Z,5.40
2022-12-28T14:13:02.057Z,5.70
2022-12-28T14:15:37.277Z,6.10
2022-12-28T14:18:09.891Z,7.00
2022-12-28T14:20:51.801Z,6.10
2022-12-28T14:23:21.714Z,5.80
2022-12-28T14:25:50.323Z,7.10
2022-12-28T14:28:38.145Z,5.00
2022-12-28T14:31:07.574Z,6.40
2022-12-28T14:33:37.166Z,5.80
2022-12-28T14:36:06.113Z,6.70
2022-12-28T14:38:37.789Z,7.30
2022-12-28T14:41:06.276Z,21.00
2022-12-28T14:43:36.402Z,9.70
2022-12-28T14:46:23.111Z,9.40
2022-12-28T14:48:51.123Z,6.70
2022-12-28T14:51:27.227Z,6.80
2022-12-28T14:54:13.929Z,9.40
2022-12-28T14:56:41.996Z,7.30
2022-12-28T14:59:19.447Z,6.60
2022-12-28T15:01:47.969Z,9.20
2022-12-28T15:04:25.093Z,7.30
2022-12-28T15:06:53.551Z,9.80
2022-12-28T15:09:22.020Z,7.10
2022-12-28T15:12:09.488Z,7.70
2022-12-28T15:14:37.880Z,6.80
2022-12-28T15:17:06.560Z,7.40
2022-12-28T15:19:35.182Z,9.00
2022-12-28T15:22:06.252Z,10.20
2022-12-28T15:24:36.199Z,9.10
2022-12-28T15:27:07.382Z,16.50
2022-12-28T15:30:07.713Z,12.80
2022-12-28T15:32:26.128Z,13.50
2022-12-28T15:34:55.694Z,39.60
2022-12-28T15:37:25.918Z,52.50
2022-12-28T15:39:56.273Z,23.60
2022-12-28T15:42:28.391Z,21.20
2022-12-28T15:44:56.967Z,21.30
2022-12-28T15:47:27.907Z,12.20
2022-12-28T15:49:59.792Z,9.50
2022-12-28T15:52:28.129Z,7.70
2022-12-28T15:54:57.454Z,8.00
2022-12-28T15:57:26.429Z,8.10
2022-12-28T15:59:55.202Z,9.00
2022-12-28T16:02:23.499Z,7.40
2022-12-28T16:04:52.279Z,6.60
2022-12-28T16:07:21.434Z,7.40
2022-12-28T16:09:50.056Z,8.30
2022-12-28T16:12:18.635Z,9.60
2022-12-28T16:14:48.036Z,9.20
2022-12-28T16:17:18.282Z,10.00
2022-12-28T16:19:46.329Z,10.10
2022-12-28T16:22:14.548Z,9.00
2022-12-28T16:24:42.769Z,9.50
2022-12-28T16:27:10.734Z,11.50
2022-12-28T16:29:39.547Z,10.30
2022-12-28T16:32:10.597Z,11.90
2022-12-28T16:34:39.572Z,9.70
2022-12-28T16:37:10.424Z,12.00
2022-12-28T16:39:38.396Z,11.70
2022-12-28T16:42:08.143Z,12.30
2022-12-28T16:44:37.479Z,13.10
2022-12-28T16:47:06.944Z,12.30
2022-12-28T16:49:38.955Z,10.90
2022-12-28T16:52:07.995Z,9.70
2022-12-28T16:54:36.414Z,9.70
2022-12-28T16:57:07.401Z,12.90
2022-12-28T16:59:37.263Z,9.30
2022-12-28T17:02:05.632Z,7.70
2022-12-28T17:04:34.141Z,8.20
2022-12-28T17:07:02.188Z,8.10
2022-12-28T17:09:30.981Z,9.40
2022-12-28T17:11:59.021Z,9.20
2022-12-28T17:14:37.359Z,7.70
2022-12-28T17:17:07.085Z,10.40
2022-12-28T17:19:35.759Z,7.70
2022-12-28T17:22:05.797Z,8.90
2022-12-28T17:24:34.941Z,10.50
2022-12-28T17:27:08.377Z,9.20
2022-12-28T17:29:39.303Z,8.50
2022-12-28T17:32:08.505Z,9.30
2022-12-28T17:34:37.583Z,9.80
2022-12-28T17:37:06.070Z,12.50
2022-12-28T17:39:39.615Z,8.40
2022-12-28T17:42:09.808Z,9.90
2022-12-28T17:44:38.899Z,10.70
2022-12-28T17:47:07.348Z,10.00
2022-12-28T17:49:37.316Z,8.60
2022-12-28T17:52:06.819Z,10.90
2022-12-28T17:54:37.042Z,10.60
2022-12-28T17:57:06.249Z,10.40
2022-12-28T17:59:35.602Z,11.20
2022-12-28T18:02:05.577Z,10.90
2022-12-28T18:04:34.864Z,9.30
2022-12-28T18:07:02.982Z,10.50
2022-12-28T18:09:33.624Z,10.00
2022-12-28T18:12:02.046Z,9.90
2022-12-28T18:14:30.281Z,12.60
2022-12-28T18:16:59.505Z,10.40
2022-12-28T18:19:27.851Z,13.70
2022-12-28T18:21:55.902Z,9.80
2022-12-28T18:24:24.776Z,10.80
2022-12-28T18:26:53.094Z,10.00
2022-12-28T18:29:21.382Z,10.30
2022-12-28T18:31:50.600Z,8.40
2022-12-28T18:34:19.570Z,9.10
2022-12-28T18:36:47.715Z,10.60
2022-12-28T18:39:16.004Z,8.30
2022-12-28T18:41:44.060Z,11.80
2022-12-28T18:44:12.071Z,10.30
2022-12-28T18:46:40.173Z,10.70
2022-12-28T18:49:08.790Z,9.70
2022-12-28T18:51:38.289Z,11.70
2022-12-28T18:54:06.514Z,10.10
2022-12-28T18:56:34.857Z,9.20
2022-12-28T18:59:03.028Z,9.90
2022-12-28T19:04:19.812Z,12.30
2022-12-28T19:06:48.148Z,12.50
2022-12-28T19:09:17.965Z,14.00
2022-12-28T19:11:47.618Z,11.50
2022-12-28T19:14:17.521Z,13.50
2022-12-28T19:16:46.337Z,10.30
2022-12-28T19:19:17.915Z,8.30
2022-12-28T19:21:53.669Z,12.00
2022-12-28T19:24:25.029Z,11.30
2022-12-28T19:26:54.502Z,9.00
2022-12-28T19:29:24.540Z,9.00
2022-12-28T19:31:53.883Z,12.70
2022-12-28T19:34:22.278Z,10.10
2022-12-28T19:36:53.471Z,9.70
2022-12-28T19:39:22.527Z,11.40
2022-12-28T19:41:51.834Z,9.40
2022-12-28T19:44:21.223Z,10.10
2022-12-28T19:46:49.876Z,10.40
2022-12-28T19:49:18.412Z,11.30
2022-12-28T19:51:47.594Z,9.70
2022-12-28T19:54:16.586Z,9.80
2022-12-28T19:56:45.688Z,9.30
2022-12-28T19:59:14.372Z,10.00
2022-12-28T20:01:43.670Z,9.50
2022-12-28T20:04:14.624Z,12.20
2022-12-28T20:06:44.367Z,14.50
2022-12-28T20:09:15.490Z,11.80
2022-12-28T20:11:45.334Z,10.40
2022-12-28T20:14:21.655Z,11.40
2022-12-28T20:16:54.950Z,13.40
2022-12-28T20:19:25.566Z,13.20
2022-12-28T20:21:54.135Z,11.10
2022-12-28T20:24:24.648Z,10.00
2022-12-28T20:26:59.697Z,9.50
2022-12-28T20:29:30.498Z,8.60
2022-12-28T20:32:00.958Z,9.10
2022-12-28T20:34:30.378Z,10.50
2022-12-28T20:36:58.832Z,10.40
2022-12-28T20:39:28.103Z,10.60
2022-12-28T20:42:16.176Z,8.00
2022-12-28T20:44:45.184Z,9.90
2022-12-28T20:47:14.670Z,10.40
2022-12-28T20:49:45.780Z,7.50
2022-12-28T20:52:15.962Z,9.80
2022-12-28T20:54:47.218Z,9.40
2022-12-28T20:57:18.377Z,10.50
2022-12-28T20:59:48.470Z,9.60
2022-12-28T21:02:19.576Z,9.00
2022-12-28T21:04:49.117Z,9.00
2022-12-28T21:07:20.024Z,10.80
2022-12-28T21:09:52.013Z,7.80
2022-12-28T21:12:22.099Z,10.30
2022-12-28T21:14:52.443Z,11.00
2022-12-28T21:17:22.672Z,11.10
2022-12-28T21:19:52.739Z,9.70
2022-12-28T21:22:25.544Z,11.30
2022-12-28T21:24:55.180Z,8.80
2022-12-28T21:27:25.287Z,9.40
2022-12-28T21:29:59.011Z,8.50
2022-12-28T21:32:31.472Z,10.50
2022-12-28T21:35:02.778Z,9.90
2022-12-28T21:37:35.952Z,9.10
2022-12-28T21:40:07.949Z,7.70
2022-12-28T21:42:38.121Z,10.60
2022-12-28T21:45:08.744Z,9.80
2022-12-28T21:47:39.621Z,10.70
2022-12-28T21:50:11.755Z,12.10
2022-12-28T21:52:42.641Z,10.30
2022-12-28T21:55:38.607Z,10.00
2022-12-28T21:58:09.177Z,8.80
2022-12-28T22:00:57.284Z,9.90
2022-12-28T22:03:45.997Z,9.80
2022-12-28T22:06:17.177Z,9.20
2022-12-28T22:09:06.108Z,7.20
2022-12-28T22:11:54.256Z,8.80
2022-12-28T22:14:24.449Z,7.80
2022-12-28T22:16:54.640Z,9.50
2022-12-28T22:19:25.757Z,8.80
2022-12-28T22:21:56.254Z,8.70
2022-12-28T22:24:29.291Z,7.90
2022-12-28T22:27:01.365Z,8.80
2022-12-28T22:29:31.969Z,8.30
2022-12-28T22:32:02.428Z,8.10
2022-12-28T22:34:33.333Z,8.20
2022-12-28T22:37:03.219Z,5.70
2022-12-28T22:39:33.118Z,8.20
2022-12-28T22:42:05.343Z,8.10
2022-12-28T22:44:39.465Z,8.50
2022-12-28T22:47:12.098Z,9.30
2022-12-28T22:49:41.721Z,9.30
2022-12-28T22:52:13.022Z,7.80
2022-12-28T22:54:46.897Z,8.20
2022-12-28T22:57:17.820Z,8.50
2022-12-28T22:59:48.656Z,8.20
2022-12-28T23:02:19.749Z,8.50
2022-12-28T23:04:50.350Z,9.30
2022-12-28T23:07:20.878Z,9.60
2022-12-28T23:09:51.339Z,8.10
2022-12-28T23:12:22.148Z,10.00
2022-12-28T23:15:10.626Z,10.50
2022-12-28T23:17:41.351Z,9.40
2022-12-28T23:20:29.575Z,9.20
2022-12-28T23:23:16.178Z,7.50
2022-12-28T23:26:13.702Z,8.20
2022-12-28T23:28:41.812Z,8.30
2022-12-28T23:31:10.024Z,8.50
2022-12-28T23:33:38.875Z,8.20
2022-12-28T23:36:07.258Z,8.30
2022-12-28T23:38:35.122Z,9.00
2022-12-28T23:41:25.209Z,7.30
2022-12-28T23:43:53.136Z,6.90
2022-12-28T23:46:21.218Z,8.00
2022-12-28T23:48:49.325Z,7.80
2022-12-28T23:51:18.020Z,7.30
2022-12-28T23:53:46.377Z,8.50
2022-12-28T23:56:14.517Z,7.90
2022-12-28T23:58:42.385Z,7.70
